sensor_id;sensor_type;location;lat;lon;timestamp;temperature;humidity
61016;DHT22;46902;52.920;6.536;2023-07-20T00:00:29;16.00;99.90
61016;DHT22;46902;52.920;6.536;2023-07-20T00:03:14;16.00;99.90
61016;DHT22;46902;52.920;6.536;2023-07-20T00:05:43;16.00;99.90
61016;DHT22;46902;52.920;6.536;2023-07-20T00:08:09;16.00;99.90
61016;DHT22;46902;52.920;6.536;2023-07-20T00:10:35;16.00;99.90
61016;DHT22;46902;52.920;6.536;2023-07-20T00:13:00;16.00;99.90
61016;DHT22;46902;52.920;6.536;2023-07-20T00:15:26;16.00;99.90
61016;DHT22;46902;52.920;6.536;2023-07-20T00:17:51;16.00;99.90
61016;DHT22;46902;52.920;6.536;2023-07-20T00:20:17;16.00;99.90
61016;DHT22;46902;52.920;6.536;2023-07-20T00:22:43;16.00;99.90
61016;DHT22;46902;52.920;6.536;2023-07-20T00:25:09;16.00;99.90
61016;DHT22;46902;52.920;6.536;2023-07-20T00:27:37;16.00;99.90
61016;DHT22;46902;52.920;6.536;2023-07-20T00:30:04;16.00;99.90
61016;DHT22;46902;52.920;6.536;2023-07-20T00:32:29;16.00;99.90
61016;DHT22;46902;52.920;6.536;2023-07-20T00:34:55;15.90;99.90
61016;DHT22;46902;52.920;6.536;2023-07-20T00:37:21;15.90;99.90
61016;DHT22;46902;52.920;6.536;2023-07-20T00:39:46;15.90;99.90
61016;DHT22;46902;52.920;6.536;2023-07-20T00:42:12;15.90;99.90
61016;DHT22;46902;52.920;6.536;2023-07-20T00:44:38;15.90;99.90
61016;DHT22;46902;52.920;6.536;2023-07-20T00:47:04;15.90;99.90
61016;DHT22;46902;52.920;6.536;2023-07-20T00:49:30;15.90;99.90
61016;DHT22;46902;52.920;6.536;2023-07-20T00:51:57;15.90;99.90
61016;DHT22;46902;52.920;6.536;2023-07-20T00:54:23;15.90;99.90
61016;DHT22;46902;52.920;6.536;2023-07-20T00:56:50;15.80;99.90
61016;DHT22;46902;52.920;6.536;2023-07-20T00:59:17;15.80;99.90
61016;DHT22;46902;52.920;6.536;2023-07-20T01:01:43;15.90;99.90
61016;DHT22;46902;52.920;6.536;2023-07-20T01:04:09;15.80;99.90
61016;DHT22;46902;52.920;6.536;2023-07-20T01:06:48;15.80;99.90
61016;DHT22;46902;52.920;6.536;2023-07-20T01:09:26;15.90;99.90
61016;DHT22;46902;52.920;6.536;2023-07-20T01:12:16;15.80;99.90
61016;DHT22;46902;52.920;6.536;2023-07-20T01:14:42;15.80;99.90
61016;DHT22;46902;52.920;6.536;2023-07-20T01:17:08;15.70;99.90
61016;DHT22;46902;52.920;6.536;2023-07-20T01:19:34;15.60;99.90
61016;DHT22;46902;52.920;6.536;2023-07-20T01:22:18;15.70;99.90
61016;DHT22;46902;52.920;6.536;2023-07-20T01:24:57;15.60;99.90
61016;DHT22;46902;52.920;6.536;2023-07-20T01:30:50;15.50;99.90
61016;DHT22;46902;52.920;6.536;2023-07-20T01:33:19;15.50;99.90
61016;DHT22;46902;52.920;6.536;2023-07-20T01:35:50;15.40;99.90
61016;DHT22;46902;52.920;6.536;2023-07-20T01:38:19;15.40;99.90
61016;DHT22;46902;52.920;6.536;2023-07-20T01:40:45;15.30;99.90
61016;DHT22;46902;52.920;6.536;2023-07-20T01:43:11;15.30;99.90
61016;DHT22;46902;52.920;6.536;2023-07-20T01:45:37;15.20;99.90
61016;DHT22;46902;52.920;6.536;2023-07-20T01:48:03;15.20;99.90
61016;DHT22;46902;52.920;6.536;2023-07-20T01:50:29;15.10;99.90
61016;DHT22;46902;52.920;6.536;2023-07-20T01:52:54;15.10;99.90
61016;DHT22;46902;52.920;6.536;2023-07-20T01:55:20;15.00;99.90
61016;DHT22;46902;52.920;6.536;2023-07-20T01:57:46;15.00;99.90
61016;DHT22;46902;52.920;6.536;2023-07-20T02:00:12;14.90;99.90
61016;DHT22;46902;52.920;6.536;2023-07-20T02:02:37;14.80;99.90
61016;DHT22;46902;52.920;6.536;2023-07-20T02:05:03;14.80;99.90
61016;DHT22;46902;52.920;6.536;2023-07-20T02:07:29;14.80;99.90
61016;DHT22;46902;52.920;6.536;2023-07-20T02:09:54;14.80;99.90
61016;DHT22;46902;52.920;6.536;2023-07-20T02:12:20;14.70;99.90
61016;DHT22;46902;52.920;6.536;2023-07-20T02:14:45;14.60;99.90
61016;DHT22;46902;52.920;6.536;2023-07-20T02:17:11;14.60;99.90
61016;DHT22;46902;52.920;6.536;2023-07-20T02:19:37;14.60;99.90
61016;DHT22;46902;52.920;6.536;2023-07-20T02:22:02;14.50;99.90
61016;DHT22;46902;52.920;6.536;2023-07-20T02:24:28;14.50;99.90
61016;DHT22;46902;52.920;6.536;2023-07-20T02:26:54;14.50;99.90
61016;DHT22;46902;52.920;6.536;2023-07-20T02:29:19;14.40;99.90
61016;DHT22;46902;52.920;6.536;2023-07-20T02:31:45;14.40;99.90
61016;DHT22;46902;52.920;6.536;2023-07-20T02:34:10;14.40;99.90
61016;DHT22;46902;52.920;6.536;2023-07-20T02:36:36;14.40;99.90
61016;DHT22;46902;52.920;6.536;2023-07-20T02:39:02;14.30;99.90
61016;DHT22;46902;52.920;6.536;2023-07-20T02:41:33;14.30;99.90
61016;DHT22;46902;52.920;6.536;2023-07-20T02:43:59;14.30;99.90
61016;DHT22;46902;52.920;6.536;2023-07-20T02:46:24;14.20;99.90
61016;DHT22;46902;52.920;6.536;2023-07-20T02:48:50;14.20;99.90
61016;DHT22;46902;52.920;6.536;2023-07-20T02:51:15;14.10;99.90
61016;DHT22;46902;52.920;6.536;2023-07-20T02:53:41;14.10;99.90
61016;DHT22;46902;52.920;6.536;2023-07-20T02:56:07;14.10;99.90
61016;DHT22;46902;52.920;6.536;2023-07-20T02:58:34;14.10;99.90
61016;DHT22;46902;52.920;6.536;2023-07-20T03:01:02;14.00;99.90
61016;DHT22;46902;52.920;6.536;2023-07-20T03:03:28;14.00;99.90
61016;DHT22;46902;52.920;6.536;2023-07-20T03:05:54;13.90;99.90
61016;DHT22;46902;52.920;6.536;2023-07-20T03:08:21;13.90;99.90
61016;DHT22;46902;52.920;6.536;2023-07-20T03:10:47;13.90;99.90
61016;DHT22;46902;52.920;6.536;2023-07-20T03:13:13;13.80;99.90
61016;DHT22;46902;52.920;6.536;2023-07-20T03:15:39;13.80;99.90
61016;DHT22;46902;52.920;6.536;2023-07-20T03:18:05;13.80;99.90
61016;DHT22;46902;52.920;6.536;2023-07-20T03:20:31;13.70;99.90
61016;DHT22;46902;52.920;6.536;2023-07-20T03:22:56;13.70;99.90
61016;DHT22;46902;52.920;6.536;2023-07-20T03:25:22;13.60;99.90
61016;DHT22;46902;52.920;6.536;2023-07-20T03:27:48;13.60;99.90
61016;DHT22;46902;52.920;6.536;2023-07-20T03:30:13;13.50;99.90
61016;DHT22;46902;52.920;6.536;2023-07-20T03:32:39;13.50;99.90
61016;DHT22;46902;52.920;6.536;2023-07-20T03:35:05;13.50;99.90
61016;DHT22;46902;52.920;6.536;2023-07-20T03:37:31;13.40;99.90
61016;DHT22;46902;52.920;6.536;2023-07-20T03:39:57;13.50;99.90
61016;DHT22;46902;52.920;6.536;2023-07-20T03:42:23;13.40;99.90
61016;DHT22;46902;52.920;6.536;2023-07-20T03:44:48;13.30;99.90
61016;DHT22;46902;52.920;6.536;2023-07-20T03:47:14;13.30;99.90
61016;DHT22;46902;52.920;6.536;2023-07-20T03:49:39;13.30;99.90
61016;DHT22;46902;52.920;6.536;2023-07-20T03:52:05;13.30;99.90
61016;DHT22;46902;52.920;6.536;2023-07-20T03:54:31;13.30;99.90
61016;DHT22;46902;52.920;6.536;2023-07-20T03:56:57;13.30;99.90
61016;DHT22;46902;52.920;6.536;2023-07-20T03:59:23;13.30;99.90
61016;DHT22;46902;52.920;6.536;2023-07-20T04:01:48;13.30;99.90
61016;DHT22;46902;52.920;6.536;2023-07-20T04:04:16;13.30;99.90
61016;DHT22;46902;52.920;6.536;2023-07-20T04:06:41;13.30;99.90
61016;DHT22;46902;52.920;6.536;2023-07-20T04:09:10;13.30;99.90
61016;DHT22;46902;52.920;6.536;2023-07-20T04:11:36;13.30;99.90
61016;DHT22;46902;52.920;6.536;2023-07-20T04:14:02;13.30;99.90
61016;DHT22;46902;52.920;6.536;2023-07-20T04:16:27;13.30;99.90
61016;DHT22;46902;52.920;6.536;2023-07-20T04:18:55;13.30;99.90
61016;DHT22;46902;52.920;6.536;2023-07-20T04:21:21;13.30;99.90
61016;DHT22;46902;52.920;6.536;2023-07-20T04:23:47;13.30;99.90
61016;DHT22;46902;52.920;6.536;2023-07-20T04:26:13;13.30;99.90
61016;DHT22;46902;52.920;6.536;2023-07-20T04:28:40;13.30;99.90
61016;DHT22;46902;52.920;6.536;2023-07-20T04:31:14;13.30;99.90
61016;DHT22;46902;52.920;6.536;2023-07-20T04:33:40;13.40;99.90
61016;DHT22;46902;52.920;6.536;2023-07-20T04:36:06;13.40;99.90
61016;DHT22;46902;52.920;6.536;2023-07-20T04:38:31;13.30;99.90
61016;DHT22;46902;52.920;6.536;2023-07-20T04:40:57;13.30;99.90
61016;DHT22;46902;52.920;6.536;2023-07-20T04:43:22;13.30;99.90
61016;DHT22;46902;52.920;6.536;2023-07-20T04:45:48;13.40;99.90
61016;DHT22;46902;52.920;6.536;2023-07-20T04:48:15;13.30;99.90
61016;DHT22;46902;52.920;6.536;2023-07-20T04:50:42;13.40;99.90
61016;DHT22;46902;52.920;6.536;2023-07-20T04:53:17;13.50;99.90
61016;DHT22;46902;52.920;6.536;2023-07-20T04:55:48;13.50;99.90
61016;DHT22;46902;52.920;6.536;2023-07-20T04:58:18;13.60;99.90
61016;DHT22;46902;52.920;6.536;2023-07-20T05:00:44;13.60;99.90
61016;DHT22;46902;52.920;6.536;2023-07-20T05:03:10;13.60;99.90
61016;DHT22;46902;52.920;6.536;2023-07-20T05:05:35;13.70;99.90
61016;DHT22;46902;52.920;6.536;2023-07-20T05:08:01;13.70;99.90
61016;DHT22;46902;52.920;6.536;2023-07-20T05:10:26;13.80;99.90
61016;DHT22;46902;52.920;6.536;2023-07-20T05:12:52;13.80;99.90
61016;DHT22;46902;52.920;6.536;2023-07-20T05:15:18;13.90;99.90
61016;DHT22;46902;52.920;6.536;2023-07-20T05:17:43;13.90;99.90
61016;DHT22;46902;52.920;6.536;2023-07-20T05:20:09;13.90;99.90
61016;DHT22;46902;52.920;6.536;2023-07-20T05:22:36;14.00;99.90
61016;DHT22;46902;52.920;6.536;2023-07-20T05:25:09;14.00;99.90
61016;DHT22;46902;52.920;6.536;2023-07-20T05:27:39;14.00;99.90
61016;DHT22;46902;52.920;6.536;2023-07-20T05:30:05;14.10;99.90
61016;DHT22;46902;52.920;6.536;2023-07-20T05:32:32;14.10;99.90
61016;DHT22;46902;52.920;6.536;2023-07-20T05:34:58;14.20;99.90
61016;DHT22;46902;52.920;6.536;2023-07-20T05:37:24;14.20;99.90
61016;DHT22;46902;52.920;6.536;2023-07-20T05:39:49;14.30;99.90
61016;DHT22;46902;52.920;6.536;2023-07-20T05:42:15;14.30;99.90
61016;DHT22;46902;52.920;6.536;2023-07-20T05:44:41;14.40;99.90
61016;DHT22;46902;52.920;6.536;2023-07-20T05:47:07;14.50;99.90
61016;DHT22;46902;52.920;6.536;2023-07-20T05:49:33;14.50;99.90
61016;DHT22;46902;52.920;6.536;2023-07-20T05:51:59;14.50;99.90
61016;DHT22;46902;52.920;6.536;2023-07-20T05:54:26;14.60;99.90
61016;DHT22;46902;52.920;6.536;2023-07-20T05:56:52;14.70;99.90
61016;DHT22;46902;52.920;6.536;2023-07-20T05:59:18;14.70;99.90
61016;DHT22;46902;52.920;6.536;2023-07-20T06:01:45;14.80;99.90
61016;DHT22;46902;52.920;6.536;2023-07-20T06:04:12;14.90;99.90
61016;DHT22;46902;52.920;6.536;2023-07-20T06:06:38;14.90;99.90
61016;DHT22;46902;52.920;6.536;2023-07-20T06:09:04;15.00;99.90
61016;DHT22;46902;52.920;6.536;2023-07-20T06:11:32;15.10;99.90
61016;DHT22;46902;52.920;6.536;2023-07-20T06:13:58;15.10;99.90
61016;DHT22;46902;52.920;6.536;2023-07-20T06:16:24;15.20;99.90
61016;DHT22;46902;52.920;6.536;2023-07-20T06:18:49;15.20;99.90
61016;DHT22;46902;52.920;6.536;2023-07-20T06:21:15;15.20;99.90
61016;DHT22;46902;52.920;6.536;2023-07-20T06:23:41;15.30;99.90
61016;DHT22;46902;52.920;6.536;2023-07-20T06:26:06;15.40;99.90
61016;DHT22;46902;52.920;6.536;2023-07-20T06:28:33;15.40;99.90
61016;DHT22;46902;52.920;6.536;2023-07-20T06:31:02;15.50;99.90
61016;DHT22;46902;52.920;6.536;2023-07-20T06:33:28;15.60;99.90
61016;DHT22;46902;52.920;6.536;2023-07-20T06:35:54;15.70;99.90
61016;DHT22;46902;52.920;6.536;2023-07-20T06:38:20;15.70;99.90
61016;DHT22;46902;52.920;6.536;2023-07-20T06:40:49;15.80;99.90
61016;DHT22;46902;52.920;6.536;2023-07-20T06:43:15;15.90;99.90
61016;DHT22;46902;52.920;6.536;2023-07-20T06:45:41;16.00;99.90
61016;DHT22;46902;52.920;6.536;2023-07-20T06:48:07;16.10;99.90
61016;DHT22;46902;52.920;6.536;2023-07-20T06:50:32;16.10;99.90
61016;DHT22;46902;52.920;6.536;2023-07-20T06:52:58;16.20;99.90
61016;DHT22;46902;52.920;6.536;2023-07-20T06:55:25;16.20;99.90
61016;DHT22;46902;52.920;6.536;2023-07-20T06:57:51;16.30;99.90
61016;DHT22;46902;52.920;6.536;2023-07-20T07:00:17;16.30;99.90
61016;DHT22;46902;52.920;6.536;2023-07-20T07:02:43;16.40;99.90
61016;DHT22;46902;52.920;6.536;2023-07-20T07:05:09;16.40;99.90
61016;DHT22;46902;52.920;6.536;2023-07-20T07:07:34;16.50;99.90
61016;DHT22;46902;52.920;6.536;2023-07-20T07:10:01;16.50;99.90
61016;DHT22;46902;52.920;6.536;2023-07-20T07:12:30;16.60;99.90
61016;DHT22;46902;52.920;6.536;2023-07-20T07:14:55;16.70;99.90
61016;DHT22;46902;52.920;6.536;2023-07-20T07:17:21;16.70;99.90
61016;DHT22;46902;52.920;6.536;2023-07-20T07:19:46;16.80;99.90
61016;DHT22;46902;52.920;6.536;2023-07-20T07:22:12;16.90;99.90
61016;DHT22;46902;52.920;6.536;2023-07-20T07:24:39;16.90;99.90
61016;DHT22;46902;52.920;6.536;2023-07-20T07:27:08;17.00;99.90
61016;DHT22;46902;52.920;6.536;2023-07-20T07:29:34;16.90;99.90
61016;DHT22;46902;52.920;6.536;2023-07-20T07:32:00;16.90;99.90
61016;DHT22;46902;52.920;6.536;2023-07-20T07:34:27;17.00;99.90
61016;DHT22;46902;52.920;6.536;2023-07-20T07:36:52;17.00;99.90
61016;DHT22;46902;52.920;6.536;2023-07-20T07:39:18;17.10;99.90
61016;DHT22;46902;52.920;6.536;2023-07-20T07:41:43;17.10;99.90
61016;DHT22;46902;52.920;6.536;2023-07-20T07:44:09;17.20;99.90
61016;DHT22;46902;52.920;6.536;2023-07-20T07:46:34;17.30;99.90
61016;DHT22;46902;52.920;6.536;2023-07-20T07:49:00;17.50;99.90
61016;DHT22;46902;52.920;6.536;2023-07-20T07:51:26;17.70;99.90
61016;DHT22;46902;52.920;6.536;2023-07-20T07:53:52;17.80;99.90
61016;DHT22;46902;52.920;6.536;2023-07-20T07:56:18;18.00;99.90
61016;DHT22;46902;52.920;6.536;2023-07-20T07:58:48;18.00;99.90
61016;DHT22;46902;52.920;6.536;2023-07-20T08:01:14;18.10;99.90
61016;DHT22;46902;52.920;6.536;2023-07-20T08:03:40;18.20;99.80
61016;DHT22;46902;52.920;6.536;2023-07-20T08:06:05;18.30;99.50
61016;DHT22;46902;52.920;6.536;2023-07-20T08:08:32;18.30;99.20
61016;DHT22;46902;52.920;6.536;2023-07-20T08:10:58;18.50;99.50
61016;DHT22;46902;52.920;6.536;2023-07-20T08:13:23;18.70;99.50
61016;DHT22;46902;52.920;6.536;2023-07-20T08:15:50;18.90;99.10
61016;DHT22;46902;52.920;6.536;2023-07-20T08:18:19;19.00;98.00
61016;DHT22;46902;52.920;6.536;2023-07-20T08:20:45;19.00;96.80
61016;DHT22;46902;52.920;6.536;2023-07-20T08:23:12;19.10;96.70
61016;DHT22;46902;52.920;6.536;2023-07-20T08:25:38;19.00;95.80
61016;DHT22;46902;52.920;6.536;2023-07-20T08:28:05;18.90;95.90
61016;DHT22;46902;52.920;6.536;2023-07-20T08:30:43;19.00;96.20
61016;DHT22;46902;52.920;6.536;2023-07-20T08:33:17;19.20;94.90
61016;DHT22;46902;52.920;6.536;2023-07-20T08:35:46;19.30;94.20
61016;DHT22;46902;52.920;6.536;2023-07-20T08:38:12;19.40;94.30
61016;DHT22;46902;52.920;6.536;2023-07-20T08:40:56;19.60;94.30
61016;DHT22;46902;52.920;6.536;2023-07-20T08:43:22;19.70;93.10
61016;DHT22;46902;52.920;6.536;2023-07-20T08:45:54;19.70;92.50
61016;DHT22;46902;52.920;6.536;2023-07-20T08:48:21;19.80;92.50
61016;DHT22;46902;52.920;6.536;2023-07-20T08:50:51;19.90;92.50
61016;DHT22;46902;52.920;6.536;2023-07-20T08:53:16;19.90;92.50
61016;DHT22;46902;52.920;6.536;2023-07-20T08:55:44;20.00;92.10
61016;DHT22;46902;52.920;6.536;2023-07-20T08:58:12;20.30;92.30
61016;DHT22;46902;52.920;6.536;2023-07-20T09:00:41;20.40;91.90
61016;DHT22;46902;52.920;6.536;2023-07-20T09:03:07;20.50;91.20
61016;DHT22;46902;52.920;6.536;2023-07-20T09:05:34;20.40;90.30
61016;DHT22;46902;52.920;6.536;2023-07-20T09:08:00;20.40;90.10
61016;DHT22;46902;52.920;6.536;2023-07-20T09:10:29;20.50;89.70
61016;DHT22;46902;52.920;6.536;2023-07-20T09:12:54;20.70;89.20
61016;DHT22;46902;52.920;6.536;2023-07-20T09:15:21;20.80;86.60
61016;DHT22;46902;52.920;6.536;2023-07-20T09:17:51;20.70;85.00
61016;DHT22;46902;52.920;6.536;2023-07-20T09:20:17;20.80;84.40
61016;DHT22;46902;52.920;6.536;2023-07-20T09:22:44;21.00;87.60
61016;DHT22;46902;52.920;6.536;2023-07-20T09:25:15;21.10;86.30
61016;DHT22;46902;52.920;6.536;2023-07-20T09:27:45;21.20;84.40
61016;DHT22;46902;52.920;6.536;2023-07-20T09:30:11;21.10;83.90
61016;DHT22;46902;52.920;6.536;2023-07-20T09:32:42;21.00;85.10
61016;DHT22;46902;52.920;6.536;2023-07-20T09:35:22;20.90;85.10
61016;DHT22;46902;52.920;6.536;2023-07-20T09:37:54;20.90;84.30
61016;DHT22;46902;52.920;6.536;2023-07-20T09:40:20;20.90;85.30
61016;DHT22;46902;52.920;6.536;2023-07-20T09:42:47;21.00;86.20
61016;DHT22;46902;52.920;6.536;2023-07-20T09:45:13;21.20;85.60
61016;DHT22;46902;52.920;6.536;2023-07-20T09:47:39;21.40;83.90
61016;DHT22;46902;52.920;6.536;2023-07-20T09:50:07;21.50;83.20
61016;DHT22;46902;52.920;6.536;2023-07-20T09:52:42;21.70;83.10
61016;DHT22;46902;52.920;6.536;2023-07-20T09:55:12;22.00;81.50
61016;DHT22;46902;52.920;6.536;2023-07-20T09:57:38;22.20;80.60
61016;DHT22;46902;52.920;6.536;2023-07-20T10:00:05;22.20;79.30
61016;DHT22;46902;52.920;6.536;2023-07-20T10:02:43;22.30;77.80
61016;DHT22;46902;52.920;6.536;2023-07-20T10:05:11;22.40;74.80
61016;DHT22;46902;52.920;6.536;2023-07-20T10:07:44;22.60;72.00
61016;DHT22;46902;52.920;6.536;2023-07-20T10:10:10;22.80;72.40
61016;DHT22;46902;52.920;6.536;2023-07-20T10:12:37;22.90;69.60
61016;DHT22;46902;52.920;6.536;2023-07-20T10:20:30;22.90;67.40
61016;DHT22;46902;52.920;6.536;2023-07-20T10:22:57;23.00;69.70
61016;DHT22;46902;52.920;6.536;2023-07-20T10:25:23;23.20;69.30
61016;DHT22;46902;52.920;6.536;2023-07-20T10:27:49;23.30;67.80
61016;DHT22;46902;52.920;6.536;2023-07-20T10:30:15;23.40;64.60
61016;DHT22;46902;52.920;6.536;2023-07-20T10:32:42;23.40;64.70
61016;DHT22;46902;52.920;6.536;2023-07-20T10:35:13;23.50;64.70
61016;DHT22;46902;52.920;6.536;2023-07-20T10:43:07;23.60;63.60
61016;DHT22;46902;52.920;6.536;2023-07-20T10:45:50;23.80;62.40
61016;DHT22;46902;52.920;6.536;2023-07-20T10:48:24;23.80;60.50
61016;DHT22;46902;52.920;6.536;2023-07-20T10:53:35;24.00;62.20
61016;DHT22;46902;52.920;6.536;2023-07-20T10:56:15;24.00;62.90
61016;DHT22;46902;52.920;6.536;2023-07-20T10:58:44;24.10;62.80
61016;DHT22;46902;52.920;6.536;2023-07-20T11:01:14;24.30;61.40
61016;DHT22;46902;52.920;6.536;2023-07-20T11:03:40;24.10;61.60
61016;DHT22;46902;52.920;6.536;2023-07-20T11:06:30;23.90;63.60
61016;DHT22;46902;52.920;6.536;2023-07-20T11:09:07;23.70;64.20
61016;DHT22;46902;52.920;6.536;2023-07-20T11:11:35;23.60;65.50
61016;DHT22;46902;52.920;6.536;2023-07-20T11:14:10;23.60;66.60
61016;DHT22;46902;52.920;6.536;2023-07-20T11:16:41;23.80;65.30
61016;DHT22;46902;52.920;6.536;2023-07-20T11:21:44;24.30;63.30
61016;DHT22;46902;52.920;6.536;2023-07-20T11:24:10;24.30;62.40
61016;DHT22;46902;52.920;6.536;2023-07-20T11:26:44;24.30;60.90
61016;DHT22;46902;52.920;6.536;2023-07-20T11:29:11;24.20;59.30
61016;DHT22;46902;52.920;6.536;2023-07-20T11:31:41;23.90;60.90
61016;DHT22;46902;52.920;6.536;2023-07-20T11:34:25;23.80;60.80
61016;DHT22;46902;52.920;6.536;2023-07-20T11:36:52;23.60;62.00
61016;DHT22;46902;52.920;6.536;2023-07-20T11:39:19;23.30;62.80
61016;DHT22;46902;52.920;6.536;2023-07-20T11:41:50;23.30;61.90
61016;DHT22;46902;52.920;6.536;2023-07-20T11:44:17;23.40;61.40
61016;DHT22;46902;52.920;6.536;2023-07-20T11:46:43;23.50;62.10
61016;DHT22;46902;52.920;6.536;2023-07-20T11:49:12;23.50;62.60
61016;DHT22;46902;52.920;6.536;2023-07-20T11:51:39;23.70;62.80
61016;DHT22;46902;52.920;6.536;2023-07-20T11:54:07;23.60;62.80
61016;DHT22;46902;52.920;6.536;2023-07-20T11:56:33;23.50;62.40
61016;DHT22;46902;52.920;6.536;2023-07-20T11:58:59;23.40;61.50
61016;DHT22;46902;52.920;6.536;2023-07-20T12:01:27;23.10;62.40
61016;DHT22;46902;52.920;6.536;2023-07-20T12:04:01;23.00;63.70
61016;DHT22;46902;52.920;6.536;2023-07-20T12:06:28;22.90;63.70
61016;DHT22;46902;52.920;6.536;2023-07-20T12:08:57;22.80;64.20
61016;DHT22;46902;52.920;6.536;2023-07-20T12:13:57;22.60;64.20
61016;DHT22;46902;52.920;6.536;2023-07-20T12:16:27;22.50;64.20
61016;DHT22;46902;52.920;6.536;2023-07-20T12:19:06;22.50;65.30
61016;DHT22;46902;52.920;6.536;2023-07-20T12:21:35;22.70;65.00
61016;DHT22;46902;52.920;6.536;2023-07-20T12:24:03;22.80;64.10
61016;DHT22;46902;52.920;6.536;2023-07-20T12:26:33;23.10;64.20
61016;DHT22;46902;52.920;6.536;2023-07-20T12:29:00;23.30;63.50
61016;DHT22;46902;52.920;6.536;2023-07-20T12:31:26;23.30;62.70
61016;DHT22;46902;52.920;6.536;2023-07-20T12:33:53;23.10;62.60
61016;DHT22;46902;52.920;6.536;2023-07-20T12:36:20;23.00;64.20
61016;DHT22;46902;52.920;6.536;2023-07-20T12:38:46;22.90;63.60
61016;DHT22;46902;52.920;6.536;2023-07-20T12:41:12;22.90;63.30
61016;DHT22;46902;52.920;6.536;2023-07-20T12:43:40;23.00;64.90
61016;DHT22;46902;52.920;6.536;2023-07-20T12:46:05;23.20;64.20
61016;DHT22;46902;52.920;6.536;2023-07-20T12:48:31;23.40;64.30
61016;DHT22;46902;52.920;6.536;2023-07-20T12:50:57;23.40;62.60
61016;DHT22;46902;52.920;6.536;2023-07-20T12:53:22;23.20;61.60
61016;DHT22;46902;52.920;6.536;2023-07-20T12:55:48;23.00;61.90
61016;DHT22;46902;52.920;6.536;2023-07-20T12:58:13;22.90;63.30
61016;DHT22;46902;52.920;6.536;2023-07-20T13:00:39;22.70;64.90
61016;DHT22;46902;52.920;6.536;2023-07-20T13:03:06;22.60;65.50
61016;DHT22;46902;52.920;6.536;2023-07-20T13:05:32;22.40;66.10
61016;DHT22;46902;52.920;6.536;2023-07-20T13:07:58;22.20;67.70
61016;DHT22;46902;52.920;6.536;2023-07-20T13:10:24;22.00;67.60
61016;DHT22;46902;52.920;6.536;2023-07-20T13:12:50;21.90;67.90
61016;DHT22;46902;52.920;6.536;2023-07-20T13:15:16;21.70;68.00
61016;DHT22;46902;52.920;6.536;2023-07-20T13:17:42;21.60;68.30
61016;DHT22;46902;52.920;6.536;2023-07-20T13:20:09;21.50;68.60
61016;DHT22;46902;52.920;6.536;2023-07-20T13:22:37;21.30;68.80
61016;DHT22;46902;52.920;6.536;2023-07-20T13:25:02;21.20;69.40
61016;DHT22;46902;52.920;6.536;2023-07-20T13:27:28;21.20;70.10
61016;DHT22;46902;52.920;6.536;2023-07-20T13:29:54;21.10;70.90
61016;DHT22;46902;52.920;6.536;2023-07-20T13:32:20;21.10;71.80
61016;DHT22;46902;52.920;6.536;2023-07-20T13:34:45;21.00;72.70
61016;DHT22;46902;52.920;6.536;2023-07-20T13:37:12;20.90;72.10
61016;DHT22;46902;52.920;6.536;2023-07-20T13:39:38;20.80;74.50
61016;DHT22;46902;52.920;6.536;2023-07-20T13:42:05;20.80;74.90
61016;DHT22;46902;52.920;6.536;2023-07-20T13:44:34;20.70;75.50
61016;DHT22;46902;52.920;6.536;2023-07-20T13:47:00;20.80;76.00
61016;DHT22;46902;52.920;6.536;2023-07-20T13:49:26;21.00;76.50
61016;DHT22;46902;52.920;6.536;2023-07-20T13:51:52;21.30;75.40
61016;DHT22;46902;52.920;6.536;2023-07-20T13:54:17;21.80;74.70
61016;DHT22;46902;52.920;6.536;2023-07-20T13:56:43;22.30;74.50
61016;DHT22;46902;52.920;6.536;2023-07-20T13:59:08;22.70;72.20
61016;DHT22;46902;52.920;6.536;2023-07-20T14:01:34;23.00;72.10
61016;DHT22;46902;52.920;6.536;2023-07-20T14:04:01;23.30;71.40
61016;DHT22;46902;52.920;6.536;2023-07-20T14:06:30;23.50;69.00
61016;DHT22;46902;52.920;6.536;2023-07-20T14:08:56;23.70;69.40
61016;DHT22;46902;52.920;6.536;2023-07-20T14:11:23;23.60;68.60
61016;DHT22;46902;52.920;6.536;2023-07-20T14:13:49;23.50;68.90
61016;DHT22;46902;52.920;6.536;2023-07-20T14:16:15;23.40;67.80
61016;DHT22;46902;52.920;6.536;2023-07-20T14:18:41;23.20;68.30
61016;DHT22;46902;52.920;6.536;2023-07-20T14:21:07;23.10;68.50
61016;DHT22;46902;52.920;6.536;2023-07-20T14:23:33;23.00;68.80
61016;DHT22;46902;52.920;6.536;2023-07-20T14:25:59;22.90;69.50
61016;DHT22;46902;52.920;6.536;2023-07-20T14:28:25;23.10;69.80
61016;DHT22;46902;52.920;6.536;2023-07-20T14:30:50;23.40;69.10
61016;DHT22;46902;52.920;6.536;2023-07-20T14:33:16;23.50;67.90
61016;DHT22;46902;52.920;6.536;2023-07-20T14:35:41;23.60;67.70
61016;DHT22;46902;52.920;6.536;2023-07-20T14:38:07;23.80;67.40
61016;DHT22;46902;52.920;6.536;2023-07-20T14:40:33;23.90;66.70
61016;DHT22;46902;52.920;6.536;2023-07-20T14:42:59;23.90;66.10
61016;DHT22;46902;52.920;6.536;2023-07-20T14:45:27;23.70;65.50
61016;DHT22;46902;52.920;6.536;2023-07-20T14:47:52;23.50;65.00
61016;DHT22;46902;52.920;6.536;2023-07-20T14:50:22;23.30;65.50
61016;DHT22;46902;52.920;6.536;2023-07-20T14:52:48;23.20;65.80
61016;DHT22;46902;52.920;6.536;2023-07-20T14:55:15;23.00;66.60
61016;DHT22;46902;52.920;6.536;2023-07-20T14:57:40;22.90;67.40
61016;DHT22;46902;52.920;6.536;2023-07-20T15:00:06;22.80;67.50
61016;DHT22;46902;52.920;6.536;2023-07-20T15:02:36;22.70;67.30
61016;DHT22;46902;52.920;6.536;2023-07-20T15:05:11;22.60;66.40
61016;DHT22;46902;52.920;6.536;2023-07-20T15:07:37;22.60;66.60
61016;DHT22;46902;52.920;6.536;2023-07-20T15:10:04;22.80;66.00
61016;DHT22;46902;52.920;6.536;2023-07-20T15:12:33;23.10;66.20
61016;DHT22;46902;52.920;6.536;2023-07-20T15:15:04;23.30;66.10
61016;DHT22;46902;52.920;6.536;2023-07-20T15:17:33;23.30;63.60
61016;DHT22;46902;52.920;6.536;2023-07-20T15:20:00;23.20;64.90
61016;DHT22;46902;52.920;6.536;2023-07-20T15:22:26;23.10;64.40
61016;DHT22;46902;52.920;6.536;2023-07-20T15:24:51;23.00;65.00
61016;DHT22;46902;52.920;6.536;2023-07-20T15:27:17;23.00;65.20
61016;DHT22;46902;52.920;6.536;2023-07-20T15:29:43;23.00;65.60
61016;DHT22;46902;52.920;6.536;2023-07-20T15:32:10;23.00;64.40
61016;DHT22;46902;52.920;6.536;2023-07-20T15:34:35;23.30;64.30
61016;DHT22;46902;52.920;6.536;2023-07-20T15:37:01;23.50;62.60
61016;DHT22;46902;52.920;6.536;2023-07-20T15:39:26;23.70;61.20
61016;DHT22;46902;52.920;6.536;2023-07-20T15:41:52;23.80;60.50
61016;DHT22;46902;52.920;6.536;2023-07-20T15:44:18;23.80;60.90
61016;DHT22;46902;52.920;6.536;2023-07-20T15:46:45;23.90;60.80
61016;DHT22;46902;52.920;6.536;2023-07-20T15:49:11;23.70;60.50
61016;DHT22;46902;52.920;6.536;2023-07-20T15:51:37;23.60;60.90